Bookmark and Share
Track history (hours):
 

Florencia

Last reported at 2014-Apr-24 21:18 UTC. Time now 2014-Apr-24 22:03 UTC.
Position N 44°24' E 008°55'.

Length 186 m.

Type: Ship. MMSI: 247105900.

NotesDate/timePositionNaut miles runAvg speedWind from/ knotsBaromVisibWave heightAir tempDewpointWater temp
2014-Apr-24 21:18N 44°24' E 008°55'0 0.0
2014-Apr-24 20:30N 44°24' E 008°55'0 0.0
2014-Apr-24 19:33N 44°24' E 008°55'0 0.0
2014-Apr-24 18:33N 44°24' E 008°55'0 0.0
2014-Apr-24 17:33N 44°24' E 008°55'6 5.6
2014-Apr-24 16:33N 44°20' E 008°59'2121.2
2014-Apr-24 15:33N 43°60' E 009°09'2322.6
2014-Apr-24 14:33N 43°39' E 009°19'2322.5
2014-Apr-24 13:34N 43°18' E 009°31'2322.8
2014-Apr-24 12:33N 42°56' E 009°40'2523.0
2014-Apr-24 11:28N 42°32' E 009°50'8 0.2
2014-Apr-23 02:19N 42°39' E 009°47'1722.2
2014-Apr-23 01:33N 42°55' E 009°40'2221.8
2014-Apr-23 00:33N 43°16' E 009°30'2222.2
2014-Apr-22 23:33N 43°36' E 009°16'2222.1
2014-Apr-22 22:33N 43°57' E 009°09'2222.3
2014-Apr-22 21:33N 44°18' E 008°59'7 6.9
2014-Apr-22 20:32N 44°25' E 008°55'0 0.0
2014-Apr-22 19:32N 44°25' E 008°55'0 0.0
2014-Apr-22 18:32N 44°25' E 008°55'0 0.0
2014-Apr-22 17:32N 44°25' E 008°55'0 0.1
2014-Apr-22 16:33N 44°25' E 008°55'1212.5
2014-Apr-22 15:34N 44°13' E 009°02'2322.9
2014-Apr-22 14:34N 43°52' E 009°13'2323.2
2014-Apr-22 13:34N 43°30' E 009°23'2323.2
2014-Apr-22 12:33N 43°08' E 009°33'3423.2
2014-Apr-22 11:05N 42°35' E 009°48'  
2014-Apr-20 05:23N 42°39' E 009°48'2222.1
2014-Apr-20 04:23N 42°59' E 009°37'1822.0
2014-Apr-20 03:33N 43°17' E 009°29'2222.3
2014-Apr-20 02:33N 43°38' E 009°18'2222.2
2014-Apr-20 01:33N 43°58' E 009°07'2121.2
2014-Apr-20 00:33N 44°18' E 008°58'7 6.0
2014-Apr-19 23:28N 44°25' E 008°55'0 0.0
2014-Apr-19 22:28N 44°25' E 008°55'0 0.0
2014-Apr-19 21:28N 44°25' E 008°55'0 0.0
2014-Apr-19 20:28N 44°25' E 008°55'2 1.9
2014-Apr-19 19:33N 44°23' E 008°57'2120.8
2014-Apr-19 18:33N 44°04' E 009°07'2322.5
2014-Apr-19 17:33N 43°43' E 009°18'2322.9
2014-Apr-19 16:33N 43°21' E 009°27'5023.0
2014-Apr-19 14:23N 42°33' E 009°48'3 0.1
2014-Apr-18 06:15N 42°36' E 009°49'2021.6
2014-Apr-18 05:19N 42°55' E 009°40'1621.5
2014-Apr-18 04:33N 43°10' E 009°33'2222.0
2014-Apr-18 03:33N 43°31' E 009°21'2221.8
2014-Apr-18 02:33N 43°52' E 009°13'2221.6
2014-Apr-18 01:33N 44°12' E 009°02'1413.0
2014-Apr-18 00:30N 44°25' E 008°55'0 0.0
2014-Apr-17 23:33N 44°25' E 008°55'0 0.0
2014-Apr-17 22:33N 44°25' E 008°55'0 0.0
2014-Apr-17 21:33N 44°25' E 008°55'0 0.0
2014-Apr-17 20:33N 44°25' E 008°55'0 0.0
2014-Apr-17 19:33N 44°25' E 008°55'5 4.9
2014-Apr-17 18:33N 44°20' E 008°58'2222.3
2014-Apr-17 17:33N 43°59' E 009°09'2222.1
2014-Apr-17 16:33N 43°39' E 009°19'2222.0
2014-Apr-17 15:33N 43°18' E 009°29'12 0.3
2014-Apr-16 02:16N 43°06' E 009°33'1622.1
2014-Apr-16 01:33N 43°20' E 009°26'2222.1
2014-Apr-16 00:33N 43°41' E 009°16'2222.0
2014-Apr-15 23:33N 44°02' E 009°06'2222.2
2014-Apr-15 22:33N 44°23' E 008°57'2 1.9
2014-Apr-15 21:32N 44°25' E 008°55'0 0.0
2014-Apr-15 20:32N 44°25' E 008°55'0 0.0
2014-Apr-15 19:26N 44°25' E 008°55'0 0.0
2014-Apr-15 18:26N 44°25' E 008°55'0 0.0
2014-Apr-15 17:32N 44°25' E 008°55'8 7.9
2014-Apr-15 16:33N 44°18' E 008°60'2322.7
2014-Apr-15 15:34N 43°56' E 009°10'2322.8
2014-Apr-15 14:33N 43°35' E 009°21'2311.5
2014-Apr-15 12:34N 43°13' E 009°32'  

Dump ship's entire track history

sailing weather and tide predictions

Florencia — IBPD — position and weather